createdAt,value
2023-11-23T00:00:11.900Z,1.16
2023-11-23T00:02:42.317Z,1.24
2023-11-23T00:05:09.666Z,1.04
2023-11-23T00:07:36.806Z,0.99
2023-11-23T00:10:04.250Z,0.95
2023-11-23T00:12:31.277Z,0.88
2023-11-23T00:14:57.858Z,0.90
2023-11-23T00:17:24.402Z,0.73
2023-11-23T00:19:50.897Z,0.70
2023-11-23T00:22:17.695Z,0.65
2023-11-23T00:24:44.239Z,0.53
2023-11-23T00:27:10.803Z,0.56
2023-11-23T00:29:37.479Z,0.56
2023-11-23T00:32:04.816Z,0.67
2023-11-23T00:34:33.570Z,0.72
2023-11-23T00:37:00.683Z,0.77
2023-11-23T00:39:27.641Z,0.77
2023-11-23T00:41:56.901Z,0.85
2023-11-23T00:44:23.423Z,0.86
2023-11-23T00:46:50.066Z,0.82
2023-11-23T00:49:17.035Z,0.89
2023-11-23T00:51:43.666Z,0.84
2023-11-23T00:54:10.449Z,0.87
2023-11-23T00:56:38.187Z,0.83
2023-11-23T00:59:04.909Z,0.80
2023-11-23T01:01:33.603Z,0.66
2023-11-23T01:04:00.347Z,0.71
2023-11-23T01:06:26.844Z,0.71
2023-11-23T01:08:53.472Z,0.74
2023-11-23T01:11:19.972Z,0.72
2023-11-23T01:13:48.457Z,0.75
2023-11-23T01:16:15.239Z,0.56
2023-11-23T01:18:43.473Z,0.57
2023-11-23T01:21:10.373Z,0.63
2023-11-23T01:23:36.976Z,0.53
2023-11-23T01:26:03.817Z,0.49
2023-11-23T01:28:30.394Z,0.52
2023-11-23T01:30:56.943Z,0.54
2023-11-23T01:33:24.299Z,0.55
2023-11-23T01:35:51.504Z,0.59
2023-11-23T01:38:18.152Z,0.46
2023-11-23T01:40:44.692Z,0.52
2023-11-23T01:43:11.663Z,0.48
2023-11-23T01:45:39.615Z,0.45
2023-11-23T01:48:07.053Z,0.50
2023-11-23T01:50:35.526Z,0.52
2023-11-23T01:53:03.849Z,0.47
2023-11-23T01:55:30.411Z,0.34
2023-11-23T01:57:59.246Z,0.48
2023-11-23T02:00:26.364Z,0.56
2023-11-23T02:02:53.325Z,0.50
2023-11-23T02:05:22.985Z,0.43
2023-11-23T02:07:49.689Z,0.47
2023-11-23T02:10:16.318Z,0.49
2023-11-23T02:12:44.772Z,0.52
2023-11-23T02:15:11.781Z,0.55
2023-11-23T02:17:38.582Z,0.58
2023-11-23T02:20:10.003Z,0.72
2023-11-23T02:22:37.484Z,0.82
2023-11-23T02:25:07.513Z,0.87
2023-11-23T02:27:37.464Z,0.86
2023-11-23T02:30:07.006Z,0.89
2023-11-23T02:32:33.755Z,0.86
2023-11-23T02:35:00.379Z,0.95
2023-11-23T02:37:26.854Z,0.97
2023-11-23T02:39:53.411Z,1.05
2023-11-23T02:42:20.543Z,1.10
2023-11-23T02:44:47.196Z,1.16
2023-11-23T02:47:13.835Z,1.21
2023-11-23T02:49:40.774Z,1.27
2023-11-23T02:52:07.416Z,1.30
2023-11-23T02:54:34.013Z,1.33
2023-11-23T02:57:00.695Z,1.32
2023-11-23T02:59:27.285Z,1.31
2023-11-23T03:01:53.926Z,1.26
2023-11-23T03:04:20.562Z,0.98
2023-11-23T03:06:47.195Z,1.11
2023-11-23T03:09:14.149Z,1.15
2023-11-23T03:11:42.027Z,1.19
2023-11-23T03:14:09.626Z,1.22
2023-11-23T03:16:36.503Z,1.26
2023-11-23T03:19:03.253Z,1.29
2023-11-23T03:21:30.088Z,1.29
2023-11-23T03:23:57.434Z,1.38
2023-11-23T03:26:24.073Z,1.42
2023-11-23T03:28:50.530Z,1.50
2023-11-23T03:31:16.993Z,1.51
2023-11-23T03:33:43.575Z,1.53
2023-11-23T03:36:10.425Z,1.50
2023-11-23T03:38:38.262Z,1.59
2023-11-23T03:41:05.483Z,1.62
2023-11-23T03:43:32.055Z,1.59
2023-11-23T03:45:58.581Z,1.60
2023-11-23T03:48:25.296Z,1.68
2023-11-23T03:50:52.225Z,1.74
2023-11-23T03:53:18.786Z,1.78
2023-11-23T03:55:45.432Z,1.79
2023-11-23T03:58:17.740Z,1.75
2023-11-23T04:00:44.373Z,1.79
2023-11-23T04:03:10.975Z,1.86
2023-11-23T04:05:39.904Z,1.91
2023-11-23T04:08:06.846Z,1.92
2023-11-23T04:10:33.376Z,1.92
2023-11-23T04:13:03.324Z,1.95
2023-11-23T04:15:29.985Z,1.98
2023-11-23T04:17:56.810Z,2.01
2023-11-23T04:20:23.397Z,1.95
2023-11-23T04:22:49.990Z,1.98
2023-11-23T04:25:16.626Z,2.03
2023-11-23T04:27:43.177Z,1.94
2023-11-23T04:30:10.844Z,2.04
2023-11-23T04:32:37.633Z,2.10
2023-11-23T04:35:04.536Z,2.07
2023-11-23T04:37:31.095Z,2.15
2023-11-23T04:39:57.596Z,2.19
2023-11-23T04:42:24.256Z,2.18
2023-11-23T04:44:50.860Z,2.12
2023-11-23T04:47:17.453Z,2.12
2023-11-23T04:49:44.316Z,2.18
2023-11-23T04:52:11.114Z,2.10
2023-11-23T04:54:40.086Z,2.18
2023-11-23T04:57:08.636Z,2.12
2023-11-23T04:59:35.634Z,2.11
2023-11-23T05:02:02.295Z,2.12
2023-11-23T05:04:28.942Z,2.05
2023-11-23T05:06:57.151Z,2.08
2023-11-23T05:09:24.008Z,2.12
2023-11-23T05:11:50.849Z,2.07
2023-11-23T05:14:18.154Z,2.01
2023-11-23T05:16:44.744Z,1.85
2023-11-23T05:19:11.244Z,1.99
2023-11-23T05:21:37.927Z,2.00
2023-11-23T05:24:05.846Z,2.07
2023-11-23T05:26:32.552Z,2.15
2023-11-23T05:28:59.023Z,2.17
2023-11-23T05:31:25.546Z,2.24
2023-11-23T05:33:52.297Z,2.28
2023-11-23T05:36:19.862Z,2.27
2023-11-23T05:38:46.494Z,2.19
2023-11-23T05:41:13.085Z,2.28
2023-11-23T05:43:39.624Z,2.26
2023-11-23T05:46:06.248Z,2.19
2023-11-23T05:48:32.817Z,2.20
2023-11-23T05:51:02.374Z,2.22
2023-11-23T05:53:28.942Z,2.08
2023-11-23T05:55:55.666Z,2.22
2023-11-23T05:58:22.175Z,2.23
2023-11-23T06:00:59.959Z,2.23
2023-11-23T06:03:34.223Z,2.16
2023-11-23T06:06:00.965Z,2.24
2023-11-23T06:08:30.617Z,2.23
2023-11-23T06:11:00.218Z,2.23
2023-11-23T06:13:29.097Z,2.24
2023-11-23T06:15:55.617Z,2.29
2023-11-23T06:18:22.776Z,2.29
2023-11-23T06:20:49.869Z,2.16
2023-11-23T06:23:16.574Z,2.27
2023-11-23T06:25:43.077Z,2.27
2023-11-23T06:28:15.157Z,2.22
2023-11-23T06:30:46.195Z,2.21
2023-11-23T06:33:13.327Z,2.30
2023-11-23T06:35:40.302Z,2.29
2023-11-23T06:38:06.989Z,2.37
2023-11-23T06:40:35.699Z,2.40
2023-11-23T06:43:03.516Z,2.41
2023-11-23T06:45:30.785Z,2.43
2023-11-23T06:47:57.469Z,2.49
2023-11-23T06:50:24.150Z,2.54
2023-11-23T06:52:50.767Z,2.49
2023-11-23T06:55:17.367Z,2.59
2023-11-23T06:57:53.300Z,2.54
2023-11-23T07:00:23.793Z,2.61
2023-11-23T07:02:56.610Z,2.60
2023-11-23T07:05:25.155Z,2.61
2023-11-23T07:07:52.780Z,2.64
2023-11-23T07:10:20.760Z,2.69
2023-11-23T07:12:51.566Z,2.79
2023-11-23T07:15:19.452Z,2.84
2023-11-23T07:17:47.770Z,2.84
2023-11-23T07:20:15.802Z,2.83
2023-11-23T07:22:42.605Z,2.85
2023-11-23T07:25:12.338Z,2.90
2023-11-23T07:27:39.416Z,2.92
2023-11-23T07:30:10.217Z,2.96
2023-11-23T07:32:37.669Z,3.00
2023-11-23T07:35:05.409Z,2.96
2023-11-23T07:37:32.435Z,3.03
2023-11-23T07:39:59.030Z,3.10
2023-11-23T07:42:26.799Z,3.04
2023-11-23T07:44:53.849Z,2.98
2023-11-23T07:47:21.090Z,3.08
2023-11-23T07:49:52.081Z,3.07
2023-11-23T07:52:18.549Z,3.11
2023-11-23T07:54:45.302Z,3.18
2023-11-23T07:57:12.320Z,3.23
2023-11-23T07:59:40.111Z,3.29
2023-11-23T08:02:06.996Z,3.33
2023-11-23T08:04:33.605Z,3.37
2023-11-23T08:07:00.469Z,3.39
2023-11-23T08:09:27.334Z,3.39
2023-11-23T08:11:54.122Z,3.44
2023-11-23T08:14:21.507Z,3.50
2023-11-23T08:16:48.335Z,3.54
2023-11-23T08:19:15.504Z,3.52
2023-11-23T08:21:42.983Z,3.60
2023-11-23T08:24:11.133Z,3.60
2023-11-23T08:26:37.952Z,3.63
2023-11-23T08:29:06.309Z,3.61
2023-11-23T08:31:33.020Z,3.60
2023-11-23T08:33:59.734Z,3.60
2023-11-23T08:36:26.465Z,3.67
2023-11-23T08:38:53.100Z,3.71
2023-11-23T08:41:19.804Z,3.78
2023-11-23T08:43:48.621Z,3.80
2023-11-23T08:46:15.536Z,3.86
2023-11-23T08:48:42.801Z,3.95
2023-11-23T08:51:09.452Z,3.97
2023-11-23T08:53:36.064Z,4.02
2023-11-23T08:56:02.849Z,3.97
2023-11-23T08:58:29.535Z,4.04
2023-11-23T09:00:56.104Z,4.11
2023-11-23T09:03:22.737Z,4.13
2023-11-23T09:05:49.590Z,4.20
2023-11-23T09:08:16.177Z,4.22
2023-11-23T09:10:45.222Z,4.25
2023-11-23T09:13:11.768Z,4.34
2023-11-23T09:15:38.378Z,4.23
2023-11-23T09:18:05.263Z,4.33
2023-11-23T09:20:32.584Z,4.36
2023-11-23T09:22:59.160Z,4.38
2023-11-23T09:25:26.138Z,4.44
2023-11-23T09:27:52.688Z,4.44
2023-11-23T09:30:19.327Z,4.41
2023-11-23T09:32:45.950Z,4.45
2023-11-23T09:35:12.554Z,4.48
2023-11-23T09:37:39.330Z,4.52
2023-11-23T09:40:11.341Z,4.57
2023-11-23T09:42:39.757Z,4.58
2023-11-23T09:45:08.230Z,4.67
2023-11-23T09:47:36.406Z,4.69
2023-11-23T09:50:04.314Z,4.72
2023-11-23T09:52:31.513Z,4.72
2023-11-23T09:54:58.778Z,4.75
2023-11-23T09:57:25.508Z,4.76
2023-11-23T09:59:52.068Z,4.76
2023-11-23T10:02:21.766Z,4.78
2023-11-23T10:04:51.312Z,4.86
2023-11-23T10:07:17.933Z,4.92
2023-11-23T10:09:44.723Z,4.92
2023-11-23T10:12:11.794Z,5.07
2023-11-23T10:14:40.692Z,5.06
2023-11-23T10:17:08.102Z,5.06
2023-11-23T10:19:34.668Z,5.11
2023-11-23T10:22:04.414Z,5.07
2023-11-23T10:24:32.025Z,5.10
2023-11-23T10:26:59.696Z,5.13
2023-11-23T10:29:39.602Z,5.20
2023-11-23T10:32:15.836Z,5.19
2023-11-23T10:34:43.141Z,5.25
2023-11-23T10:37:14.837Z,5.29
2023-11-23T10:39:41.525Z,5.31
2023-11-23T10:42:08.130Z,5.32
2023-11-23T10:44:35.084Z,5.37
2023-11-23T10:47:05.084Z,5.42
2023-11-23T10:49:35.058Z,5.37
2023-11-23T10:52:01.550Z,5.34
2023-11-23T10:54:33.628Z,5.30
2023-11-23T10:57:05.059Z,5.31
2023-11-23T10:59:38.861Z,5.34
2023-11-23T11:02:08.470Z,5.26
2023-11-23T11:04:35.472Z,5.24
2023-11-23T11:07:05.283Z,5.24
2023-11-23T11:09:34.504Z,5.32
2023-11-23T11:12:03.536Z,5.28
2023-11-23T11:14:37.532Z,5.39
2023-11-23T11:17:07.917Z,5.44
2023-11-23T11:19:47.145Z,5.48
2023-11-23T11:22:14.786Z,5.50
2023-11-23T11:24:50.636Z,5.48
2023-11-23T11:27:20.832Z,5.54
2023-11-23T11:29:53.848Z,5.55
2023-11-23T11:32:21.954Z,5.55
2023-11-23T11:34:48.667Z,5.57
2023-11-23T11:37:15.832Z,5.58
2023-11-23T11:39:45.284Z,5.66
2023-11-23T11:42:12.277Z,5.74
2023-11-23T11:44:49.764Z,5.73
2023-11-23T11:47:18.308Z,5.77
2023-11-23T11:49:45.058Z,5.80
2023-11-23T11:52:13.460Z,5.90
2023-11-23T11:54:40.331Z,5.94
2023-11-23T11:57:06.998Z,5.96
2023-11-23T11:59:37.230Z,6.00
2023-11-23T12:02:13.028Z,6.08
2023-11-23T12:04:40.703Z,6.10
2023-11-23T12:07:15.533Z,6.14
2023-11-23T12:09:46.617Z,6.12
2023-11-23T12:12:14.369Z,6.11
2023-11-23T12:14:41.005Z,6.19
2023-11-23T12:17:11.900Z,6.14
2023-11-23T12:19:50.273Z,6.16
2023-11-23T12:22:24.530Z,6.20
2023-11-23T12:24:52.401Z,6.20
2023-11-23T12:27:21.562Z,6.22
2023-11-23T12:29:48.389Z,6.26
2023-11-23T12:32:15.036Z,6.22
2023-11-23T12:34:41.617Z,6.21
2023-11-23T12:37:08.285Z,6.28
2023-11-23T12:39:35.093Z,6.16
2023-11-23T12:42:01.748Z,6.20
2023-11-23T12:44:28.451Z,6.20
2023-11-23T12:46:58.009Z,6.21
2023-11-23T12:49:24.551Z,6.22
2023-11-23T12:51:53.056Z,6.21
2023-11-23T12:54:19.716Z,6.25
2023-11-23T12:56:46.427Z,6.28
2023-11-23T12:59:13.072Z,6.31
2023-11-23T13:01:40.740Z,6.35
2023-11-23T13:04:09.701Z,6.41
2023-11-23T13:06:37.584Z,6.47
2023-11-23T13:09:05.396Z,6.40
2023-11-23T13:11:32.740Z,6.45
2023-11-23T13:13:59.557Z,6.47
2023-11-23T13:16:26.233Z,6.49
2023-11-23T13:19:06.470Z,6.46
2023-11-23T13:21:39.960Z,6.49
2023-11-23T13:24:08.014Z,6.52
2023-11-23T13:26:34.751Z,6.58
2023-11-23T13:29:01.260Z,6.55
2023-11-23T13:31:28.835Z,6.49
2023-11-23T13:33:56.394Z,6.50
2023-11-23T13:36:23.944Z,6.48
2023-11-23T13:38:51.607Z,6.49
2023-11-23T13:41:19.832Z,6.50
2023-11-23T13:43:48.156Z,6.50
2023-11-23T13:46:19.963Z,6.55
2023-11-23T13:48:51.346Z,6.59
2023-11-23T13:51:19.253Z,6.66
2023-11-23T13:53:46.206Z,6.60
2023-11-23T13:56:16.042Z,6.58
2023-11-23T13:58:43.071Z,6.63
2023-11-23T14:01:12.538Z,6.69
2023-11-23T14:03:39.515Z,6.69
2023-11-23T14:06:07.582Z,6.72
2023-11-23T14:08:35.139Z,6.76
2023-11-23T14:11:02.306Z,6.70
2023-11-23T14:13:29.206Z,6.75
2023-11-23T14:15:55.920Z,6.79
2023-11-23T14:18:22.803Z,6.69
2023-11-23T14:20:50.862Z,6.74
2023-11-23T14:23:18.536Z,6.76
2023-11-23T14:25:45.205Z,6.79
2023-11-23T14:28:16.281Z,6.78
2023-11-23T14:30:46.835Z,6.74
2023-11-23T14:33:14.698Z,6.74
2023-11-23T14:35:42.580Z,6.80
2023-11-23T14:38:12.131Z,6.76
2023-11-23T14:40:40.737Z,6.78
2023-11-23T14:43:08.778Z,6.78
2023-11-23T14:45:37.009Z,6.79
2023-11-23T14:48:04.982Z,6.78
2023-11-23T14:50:31.844Z,6.81
2023-11-23T14:52:59.754Z,6.81
2023-11-23T14:55:26.708Z,6.84
2023-11-23T14:57:53.294Z,6.88
2023-11-23T15:00:20.144Z,6.80
2023-11-23T15:02:47.102Z,6.83
2023-11-23T15:05:14.216Z,6.83
2023-11-23T15:07:43.543Z,6.84
2023-11-23T15:10:13.134Z,6.83
2023-11-23T15:12:41.219Z,6.79
2023-11-23T15:15:09.536Z,6.81
2023-11-23T15:17:37.520Z,6.84
2023-11-23T15:20:07.463Z,6.86
2023-11-23T15:22:34.838Z,6.83
2023-11-23T15:25:09.879Z,6.84
2023-11-23T15:27:37.631Z,6.84
2023-11-23T15:30:06.026Z,6.89
2023-11-23T15:32:38.485Z,6.91
2023-11-23T15:35:08.959Z,6.98
2023-11-23T15:37:37.263Z,6.99
2023-11-23T15:40:06.375Z,6.97
2023-11-23T15:42:34.174Z,6.92
2023-11-23T15:45:00.670Z,6.92
2023-11-23T15:47:27.187Z,6.96
2023-11-23T15:49:53.684Z,6.99
2023-11-23T15:52:21.466Z,7.04
2023-11-23T15:54:48.178Z,6.97
2023-11-23T15:57:17.631Z,6.97
2023-11-23T15:59:44.212Z,6.96
2023-11-23T16:02:12.330Z,6.97
2023-11-23T16:04:39.165Z,7.00
2023-11-23T16:07:05.625Z,7.00
2023-11-23T16:09:32.124Z,6.96
2023-11-23T16:11:59.065Z,7.01
2023-11-23T16:14:25.531Z,7.03
2023-11-23T16:16:52.162Z,7.00
2023-11-23T16:19:18.730Z,6.96
2023-11-23T16:21:45.200Z,6.95
2023-11-23T16:24:12.054Z,6.94
2023-11-23T16:26:38.745Z,6.91
2023-11-23T16:29:11.024Z,6.98
2023-11-23T16:31:43.203Z,6.96
2023-11-23T16:34:12.712Z,6.94
2023-11-23T16:36:40.800Z,6.95
2023-11-23T16:39:08.476Z,6.97
2023-11-23T16:41:35.276Z,7.00
2023-11-23T16:44:02.030Z,7.02
2023-11-23T16:46:28.501Z,6.98
2023-11-23T16:48:55.860Z,7.00
2023-11-23T16:51:25.375Z,7.04
2023-11-23T16:53:54.675Z,7.00
2023-11-23T16:56:22.217Z,6.97
2023-11-23T16:58:48.719Z,6.99
2023-11-23T17:01:15.253Z,7.07
2023-11-23T17:03:41.769Z,7.06
2023-11-23T17:06:08.750Z,7.11
2023-11-23T17:08:35.404Z,7.09
2023-11-23T17:11:01.943Z,7.08
2023-11-23T17:13:28.411Z,7.12
2023-11-23T17:15:54.852Z,7.14
2023-11-23T17:18:21.630Z,7.11
2023-11-23T17:20:48.171Z,7.12
2023-11-23T17:23:16.181Z,7.13
2023-11-23T17:25:43.230Z,7.14
2023-11-23T17:28:12.076Z,7.15
2023-11-23T17:30:43.016Z,7.14
2023-11-23T17:33:12.509Z,7.18
2023-11-23T17:35:39.373Z,7.20
2023-11-23T17:38:07.251Z,7.21
2023-11-23T17:40:34.537Z,7.22
2023-11-23T17:43:00.993Z,7.26
2023-11-23T17:45:27.527Z,7.24
2023-11-23T17:47:54.124Z,7.28
2023-11-23T17:50:20.963Z,7.29
2023-11-23T17:52:48.358Z,7.31
2023-11-23T17:55:15.347Z,7.30
2023-11-23T17:57:41.861Z,7.30
2023-11-23T18:00:13.468Z,7.27
2023-11-23T18:02:44.030Z,7.22
2023-11-23T18:05:13.040Z,7.24
2023-11-23T18:07:39.496Z,7.18
2023-11-23T18:10:06.878Z,7.16
2023-11-23T18:12:53.293Z,7.12
2023-11-23T18:15:19.994Z,7.17
2023-11-23T18:17:46.485Z,7.18
2023-11-23T18:20:14.673Z,7.16
2023-11-23T18:22:41.229Z,7.20
2023-11-23T18:25:08.059Z,7.16
2023-11-23T18:27:35.209Z,7.17
2023-11-23T18:30:01.709Z,7.17
2023-11-23T18:32:30.122Z,7.20
2023-11-23T18:34:56.657Z,7.21
2023-11-23T18:37:23.843Z,7.17
2023-11-23T18:39:50.408Z,7.24
2023-11-23T18:42:17.056Z,7.24
2023-11-23T18:44:43.651Z,7.25
2023-11-23T18:47:10.254Z,7.22
2023-11-23T18:49:37.257Z,7.24
2023-11-23T18:52:04.119Z,7.19
2023-11-23T18:54:30.743Z,7.22
2023-11-23T18:56:57.279Z,7.25
2023-11-23T18:59:25.278Z,7.29
2023-11-23T19:01:54.885Z,7.34
2023-11-23T19:04:21.919Z,7.32
2023-11-23T19:06:50.546Z,7.30
2023-11-23T19:09:17.986Z,7.32
2023-11-23T19:11:44.438Z,7.32
2023-11-23T19:14:10.987Z,7.31
2023-11-23T19:16:37.488Z,7.34
2023-11-23T19:19:04.192Z,7.38
2023-11-23T19:21:31.738Z,7.42
2023-11-23T19:23:58.840Z,7.44
2023-11-23T19:26:26.927Z,7.46
2023-11-23T19:28:55.401Z,7.44
2023-11-23T19:31:22.092Z,7.45
2023-11-23T19:33:48.774Z,7.52
2023-11-23T19:36:15.622Z,7.51
2023-11-23T19:38:42.346Z,7.56
2023-11-23T19:41:10.417Z,7.56
2023-11-23T19:43:37.710Z,7.55
2023-11-23T19:46:04.985Z,7.58
2023-11-23T19:48:31.881Z,7.60
2023-11-23T19:50:59.222Z,7.64
2023-11-23T19:53:29.783Z,7.67
2023-11-23T19:55:56.311Z,7.65
2023-11-23T19:58:22.944Z,7.74
2023-11-23T20:00:50.740Z,7.71
2023-11-23T20:03:17.227Z,7.71
2023-11-23T20:05:44.026Z,7.74
2023-11-23T20:08:13.486Z,7.77
2023-11-23T20:10:43.438Z,7.74
2023-11-23T20:13:11.661Z,7.77
2023-11-23T20:15:38.207Z,7.79
2023-11-23T20:18:04.788Z,7.77
2023-11-23T20:20:31.652Z,7.79
2023-11-23T20:22:58.501Z,7.78
2023-11-23T20:25:25.966Z,7.79
2023-11-23T20:27:52.830Z,7.84
2023-11-23T20:30:19.517Z,7.82
2023-11-23T20:32:47.374Z,7.81
2023-11-23T20:35:13.940Z,7.84
2023-11-23T20:37:40.595Z,7.87
2023-11-23T20:40:09.066Z,7.88
2023-11-23T20:42:35.601Z,7.88
2023-11-23T20:45:02.164Z,7.92
2023-11-23T20:47:28.726Z,7.91
2023-11-23T20:49:55.201Z,7.92
2023-11-23T20:52:22.720Z,7.87
2023-11-23T20:54:50.020Z,7.88
2023-11-23T20:57:16.953Z,7.96
2023-11-23T20:59:44.509Z,7.93
2023-11-23T21:02:11.514Z,7.93
2023-11-23T21:04:40.023Z,7.96
2023-11-23T21:07:08.612Z,7.96
2023-11-23T21:09:35.586Z,8.01
2023-11-23T21:12:03.350Z,7.98
2023-11-23T21:14:31.656Z,8.03
2023-11-23T21:17:01.300Z,8.01
2023-11-23T21:19:28.066Z,8.06
2023-11-23T21:21:55.449Z,8.07
2023-11-23T21:24:21.927Z,8.11
2023-11-23T21:26:48.644Z,8.15
2023-11-23T21:29:15.145Z,8.12
2023-11-23T21:31:41.719Z,8.13
2023-11-23T21:34:08.319Z,8.11
2023-11-23T21:36:35.895Z,8.17
2023-11-23T21:39:02.781Z,8.19
2023-11-23T21:41:29.965Z,8.14
2023-11-23T21:43:56.905Z,8.18
2023-11-23T21:46:25.336Z,8.17
2023-11-23T21:48:52.257Z,8.17
2023-11-23T21:51:28.030Z,8.19
2023-11-23T21:53:55.419Z,8.24
2023-11-23T21:56:21.976Z,8.24
2023-11-23T21:58:48.554Z,8.23
2023-11-23T22:01:15.169Z,8.24
2023-11-23T22:03:41.918Z,8.28
2023-11-23T22:06:09.863Z,8.29
2023-11-23T22:08:36.478Z,8.32
2023-11-23T22:11:03.442Z,8.31
2023-11-23T22:13:29.937Z,8.35
2023-11-23T22:15:56.485Z,8.38
2023-11-23T22:18:23.519Z,8.35
2023-11-23T22:20:50.238Z,8.36
2023-11-23T22:23:16.980Z,8.36
2023-11-23T22:25:43.753Z,8.37
2023-11-23T22:28:10.531Z,8.45
2023-11-23T22:30:40.567Z,8.44
2023-11-23T22:33:08.061Z,8.44
2023-11-23T22:35:34.950Z,8.46
2023-11-23T22:38:06.599Z,8.51
2023-11-23T22:40:35.058Z,8.56
2023-11-23T22:43:01.710Z,8.54
2023-11-23T22:45:28.562Z,8.61
2023-11-23T22:47:55.204Z,8.63
2023-11-23T22:50:21.817Z,8.61
2023-11-23T22:52:48.306Z,8.70
2023-11-23T22:55:14.785Z,8.71
2023-11-23T22:57:42.482Z,8.73
2023-11-23T23:00:11.797Z,8.80
2023-11-23T23:02:39.214Z,8.80
2023-11-23T23:05:06.447Z,8.83
2023-11-23T23:07:34.785Z,8.89
2023-11-23T23:10:01.454Z,8.88
2023-11-23T23:12:28.162Z,8.88
2023-11-23T23:14:54.640Z,8.91
2023-11-23T23:17:21.074Z,8.91
2023-11-23T23:19:47.596Z,8.94
2023-11-23T23:22:24.221Z,8.94
2023-11-23T23:24:55.205Z,8.96
2023-11-23T23:27:21.785Z,8.99
2023-11-23T23:29:48.247Z,8.96
2023-11-23T23:32:14.728Z,8.98
2023-11-23T23:34:41.324Z,8.98
2023-11-23T23:37:08.410Z,8.97
2023-11-23T23:39:34.966Z,9.01
2023-11-23T23:42:01.595Z,8.99
2023-11-23T23:44:28.085Z,9.02
2023-11-23T23:46:56.738Z,9.02
2023-11-23T23:49:23.495Z,9.04
2023-11-23T23:51:51.592Z,9.00
2023-11-23T23:54:19.915Z,9.01
2023-11-23T23:56:46.895Z,9.04
2023-11-23T23:59:13.512Z,9.06
